Holmes City, Minnesota
Current Conditions -  °F | °C
As of 9:19 PM on Saturday 20 Dec 2014 (Local Time) from KAXN Reporting Station
Overcast Overcast  
Wind Chill: 17°   Ceiling: 400
Heat Index: 29°   Visibility: 7mi
Dew Point: 27°   Wind: 17mph
Humidity: 92%   Direction: 160°SSE
Pressure: 29.98"   Gusts: 25mph
Location:  45.83°N, 95.54°W
Report Text: KAXN 210319Z AUTO 16015G22KT 7SM OVC004 M02/M03 A2998 RMK AO2 T10171028
Loading
Personal Weather Stations






























Interactive Weather Map New forecast layout! Learn more

10-Day Weather Forecast

Advertisements
Track Severe Weather on mobile